Time;durP1;ratioP1;P1;durP2;ratioP2;P2;SDS_P1;SDS_P2;PMS_P1;PMS_P2;Temp;Humidity;BMP_temperature;BMP_pressure;BME280_temperature;BME280_humidity;BME280_pressure;Samples;Min_cycle;Max_cycle;Signal;HPM_P1;HPM_P2
2022/02/08 00:02:47;;;;;;;1.60;0.70;;;;;;;;;;19823969;30;20058;-59
2022/02/08 00:12:49;;;;;;;1.13;0.55;;;;;;;;;;19822683;30;20082;-63
2022/02/08 00:22:51;;;;;;;1.55;0.68;;;;;;;;;;19821643;30;20407;-61
2022/02/08 00:32:54;;;;;;;1.42;0.65;;;;;;;;;;19820946;30;20067;-60
2022/02/08 00:42:57;;;;;;;2.10;0.70;;;;;;;;;;19820659;30;20492;-61
2022/02/08 00:52:59;;;;;;;1.73;0.60;;;;;;;;;;19819636;30;20108;-68
2022/02/08 01:03:05;;;;;;;2.15;0.70;;;;;;;;;;19818568;29;20059;-68
2022/02/08 01:13:08;;;;;;;1.83;0.80;;;;;;;;;;19818593;30;20111;-67
2022/02/08 01:23:10;;;;;;;1.35;0.70;;;;;;;;;;19817762;30;20071;-60
2022/02/08 01:44:06;;;;;;;3.07;0.90;;;;;;;;;;19588541;29;20064;-64
2022/02/08 01:54:02;;;;;;;2.25;0.80;;;;;;;;;;19587450;29;20575;-64
2022/02/08 02:04:04;;;;;;;2.10;0.80;;;;;;;;;;19587426;30;20059;-67
2022/02/08 02:14:06;;;;;;;1.17;0.65;;;;;;;;;;19651573;29;20062;-67
2022/02/08 02:24:09;;;;;;;1.52;0.60;;;;;;;;;;19829805;30;20397;-67
2022/02/08 02:34:11;;;;;;;1.00;0.65;;;;;;;;;;19828934;30;20409;-66
2022/02/08 02:44:18;;;;;;;1.05;1.00;;;;;;;;;;19828485;30;20107;-67
2022/02/08 02:54:20;;;;;;;0.93;0.60;;;;;;;;;;19828237;30;20086;-67
2022/02/08 03:24:57;;;;;;;1.67;0.60;;;;;;;;;;19841136;29;20565;-66
2022/02/08 03:35:00;;;;;;;1.55;0.70;;;;;;;;;;19829161;30;20055;-67
2022/02/08 03:45:03;;;;;;;1.60;0.80;;;;;;;;;;19824118;30;20052;-67
2022/02/08 03:55:07;;;;;;;1.80;0.80;;;;;;;;;;19824042;30;20108;-67
2022/02/08 04:46:27;;;;;;;4.65;1.25;;;;;;;;;;19819746;30;20053;-67
2022/02/08 05:48:24;;;;;;;3.15;1.10;;;;;;;;;;19587341;29;20083;-66
2022/02/08 05:58:27;;;;;;;2.78;1.30;;;;;;;;;;19634285;30;20382;-66
2022/02/08 06:08:29;;;;;;;3.83;1.40;;;;;;;;;;19816387;30;20052;-66
2022/02/08 06:18:31;;;;;;;3.72;1.92;;;;;;;;;;19816047;30;20067;-67
2022/02/08 06:28:34;;;;;;;6.45;2.40;;;;;;;;;;19810802;30;20047;-66
2022/02/08 06:38:36;;;;;;;6.35;2.35;;;;;;;;;;19810515;29;20409;-67
2022/02/08 06:48:57;;;;;;;4.35;2.10;;;;;;;;;;19811954;30;20128;-67
2022/02/08 06:59:19;;;;;;;4.43;2.15;;;;;;;;;;19818922;29;20051;-66
2022/02/08 07:09:21;;;;;;;6.70;2.78;;;;;;;;;;19821525;30;20059;-68
2022/02/08 07:19:23;;;;;;;5.38;2.28;;;;;;;;;;19778733;29;1283862;-59
2022/02/08 07:29:32;;;;;;;15.25;3.90;;;;;;;;;;19824996;30;20071;-59
2022/02/08 07:49:44;;;;;;;7.97;2.58;;;;;;;;;;19823880;30;20091;-59
2022/02/08 07:59:45;;;;;;;6.82;2.50;;;;;;;;;;19823051;30;20421;-66
2022/02/08 08:09:49;;;;;;;7.70;2.63;;;;;;;;;;19833384;29;20051;-59
2022/02/08 08:19:52;;;;;;;9.73;2.45;;;;;;;;;;19856375;29;20090;-62
2022/02/08 08:29:54;;;;;;;11.98;2.60;;;;;;;;;;19878545;29;20066;-67
2022/02/08 08:40:03;;;;;;;11.95;3.05;;;;;;;;;;19894517;29;20054;-65
2022/02/08 09:00:37;;;;;;;9.88;2.42;;;;;;;;;;19514489;30;20052;-62
2022/02/08 09:10:49;;;;;;;6.47;3.30;;;;;;;;;;19514928;30;20592;-66
2022/02/08 09:30:59;;;;;;;9.10;2.33;;;;;;;;;;19597435;30;20132;-70
2022/02/08 09:41:03;;;;;;;4.93;1.33;;;;;;;;;;19820833;29;20408;-62
2022/02/08 09:51:07;;;;;;;6.55;1.65;;;;;;;;;;19821596;29;20073;-64
2022/02/08 10:01:12;;;;;;;7.57;1.65;;;;;;;;;;19814619;30;20067;-66
2022/02/08 10:11:25;;;;;;;4.35;1.80;;;;;;;;;;19800027;30;20138;-63
2022/02/08 10:21:45;;;;;;;2.95;1.55;;;;;;;;;;19814165;30;20055;-69
2022/02/08 10:32:04;;;;;;;4.90;1.70;;;;;;;;;;19820721;29;20420;-65
2022/02/08 10:42:14;;;;;;;5.47;1.88;;;;;;;;;;19832091;30;20514;-63
2022/02/08 10:52:16;;;;;;;3.33;1.27;;;;;;;;;;19830446;30;20055;-62
2022/02/08 11:02:33;;;;;;;3.42;1.10;;;;;;;;;;19826807;30;20152;-64
2022/02/08 11:22:58;;;;;;;5.90;1.33;;;;;;;;;;19794192;29;20063;-57
2022/02/08 11:33:20;;;;;;;3.38;1.63;;;;;;;;;;19749594;30;20581;-59
2022/02/08 12:27:04;;;;;;;3.67;2.15;;;;;;;;;;19823772;29;20090;-63
2022/02/08 13:06:23;;;;;;;6.18;2.42;;;;;;;;;;19515649;30;20085;-60
2022/02/08 14:18:26;;;;;;;4.90;2.25;;;;;;;;;;19762872;30;20116;-71
2022/02/08 14:49:56;;;;;;;5.07;1.70;;;;;;;;;;19827549;30;20055;-71
2022/02/08 15:09:59;;;;;;;4.60;1.30;;;;;;;;;;19826329;30;20489;-59
2022/02/08 15:20:04;;;;;;;5.23;1.67;;;;;;;;;;19825851;29;20489;-71
2022/02/08 15:30:07;;;;;;;3.45;1.65;;;;;;;;;;19824554;30;20116;-60
2022/02/08 15:40:10;;;;;;;6.63;1.37;;;;;;;;;;19824476;30;20105;-70
2022/02/08 15:50:20;;;;;;;4.28;1.55;;;;;;;;;;19823703;30;20081;-60
2022/02/08 16:11:11;;;;;;;5.13;1.50;;;;;;;;;;19824583;30;20098;-60
2022/02/08 17:02:05;;;;;;;11.27;2.08;;;;;;;;;;19819718;30;20082;-60
2022/02/08 17:12:34;;;;;;;4.25;2.30;;;;;;;;;;19817964;30;20058;-60
2022/02/08 17:53:38;;;;;;;3.50;2.00;;;;;;;;;;19816440;30;20089;-63
2022/02/08 18:03:40;;;;;;;8.25;2.70;;;;;;;;;;19816642;30;20087;-60
2022/02/08 18:13:44;;;;;;;8.82;2.92;;;;;;;;;;19815048;30;20564;-66
2022/02/08 18:24:19;;;;;;;5.77;3.97;;;;;;;;;;19813674;30;20048;-63
2022/02/08 19:25:56;;;;;;;8.85;4.03;;;;;;;;;;19824771;30;20063;-70
2022/02/08 19:35:58;;;;;;;10.05;5.90;;;;;;;;;;19809278;30;20062;-69
2022/02/08 19:46:01;;;;;;;11.05;5.70;;;;;;;;;;19826226;30;20055;-72
2022/02/08 20:06:29;;;;;;;31.55;17.13;;;;;;;;;;19668628;30;20114;-71
2022/02/08 20:16:31;;;;;;;16.67;8.85;;;;;;;;;;19667593;30;20098;-71
2022/02/08 20:26:47;;;;;;;11.68;7.50;;;;;;;;;;19679549;30;20083;-73
2022/02/08 20:36:50;;;;;;;20.20;10.98;;;;;;;;;;19731215;30;20055;-72
2022/02/08 20:47:00;;;;;;;13.23;6.25;;;;;;;;;;19822564;30;20060;-71
2022/02/08 20:57:10;;;;;;;14.75;6.70;;;;;;;;;;19821265;30;20229;-71
2022/02/08 21:07:13;;;;;;;32.22;16.95;;;;;;;;;;19819049;30;20051;-71
2022/02/08 21:17:16;;;;;;;32.58;19.98;;;;;;;;;;19816995;29;20142;-71
2022/02/08 21:27:21;;;;;;;18.33;9.23;;;;;;;;;;19816940;30;20164;-73
2022/02/08 21:58:00;;;;;;;14.90;7.32;;;;;;;;;;19815901;30;20164;-69
2022/02/08 22:08:07;;;;;;;15.88;7.03;;;;;;;;;;19799372;30;20378;-72
2022/02/08 22:38:30;;;;;;;11.20;6.87;;;;;;;;;;19828759;30;20055;-70
2022/02/08 22:48:35;;;;;;;11.85;3.90;;;;;;;;;;19828303;30;20138;-70
2022/02/08 22:58:38;;;;;;;5.03;2.87;;;;;;;;;;19828372;30;20062;-72
2022/02/08 23:08:40;;;;;;;6.65;3.47;;;;;;;;;;19828243;30;20126;-72
2022/02/08 23:39:25;;;;;;;13.13;3.70;;;;;;;;;;19825065;29;20063;-70
2022/02/08 23:49:35;;;;;;;8.43;2.60;;;;;;;;;;19825138;30;20063;-71
2022/02/08 23:59:46;;;;;;;5.90;2.45;;;;;;;;;;19823573;30;20489;-69
